Time;durP1;ratioP1;P1;durP2;ratioP2;P2;SDS_P1;SDS_P2;PMS_P1;PMS_P2;Temp;Humidity;BMP_temperature;BMP_pressure;BME280_temperature;BME280_humidity;BME280_pressure;Samples;Min_cycle;Max_cycle;Signal;HPM_P1;HPM_P2
2022/10/19 00:00:04;;;;;;;31.20;3.97;;;;;;;;;;5097160;28;20055;-84
2022/10/19 00:02:30;;;;;;;25.42;4.15;;;;;;;;;;5103322;27;20098;-86
2022/10/19 00:04:57;;;;;;;14.27;4.07;;;;;;;;;;5109073;27;20086;-84
2022/10/19 00:07:23;;;;;;;11.32;4.05;;;;;;;;;;5109881;27;20118;-84
2022/10/19 00:09:49;;;;;;;10.35;4.47;;;;;;;;;;5107379;27;20056;-84
2022/10/19 00:12:16;;;;;;;9.15;4.28;;;;;;;;;;5084229;27;20056;-81
2022/10/19 00:14:42;;;;;;;22.83;5.47;;;;;;;;;;5107211;27;20060;-80
2022/10/19 00:17:08;;;;;;;9.65;4.55;;;;;;;;;;5108690;27;20852;-80
2022/10/19 00:19:35;;;;;;;20.83;4.70;;;;;;;;;;5105773;27;20060;-81
2022/10/19 00:22:01;;;;;;;10.98;4.75;;;;;;;;;;5090707;28;20048;-81
2022/10/19 00:24:27;;;;;;;13.13;4.75;;;;;;;;;;5103391;27;20601;-81
2022/10/19 00:26:53;;;;;;;9.15;4.10;;;;;;;;;;5106414;28;20139;-80
2022/10/19 00:29:20;;;;;;;19.25;4.70;;;;;;;;;;5109753;27;20125;-81
2022/10/19 00:31:48;;;;;;;11.02;3.92;;;;;;;;;;5103501;27;20064;-80
2022/10/19 00:34:14;;;;;;;8.40;4.28;;;;;;;;;;5107664;27;20888;-81
2022/10/19 00:36:40;;;;;;;8.55;4.00;;;;;;;;;;5118560;27;20060;-81
2022/10/19 00:39:10;;;;;;;8.25;3.85;;;;;;;;;;5115928;27;21424;-81
2022/10/19 00:41:37;;;;;;;8.15;4.03;;;;;;;;;;5106099;28;20090;-81
2022/10/19 00:44:12;;;;;;;7.57;3.97;;;;;;;;;;5102769;28;20060;-81
2022/10/19 00:46:40;;;;;;;7.35;3.72;;;;;;;;;;5099767;28;20084;-81
2022/10/19 00:49:09;;;;;;;7.30;3.47;;;;;;;;;;5113438;27;20055;-81
2022/10/19 00:51:38;;;;;;;10.55;3.92;;;;;;;;;;5095817;27;20514;-80
2022/10/19 00:54:05;;;;;;;6.95;3.00;;;;;;;;;;5105304;28;20747;-80
2022/10/19 00:56:31;;;;;;;6.80;3.47;;;;;;;;;;5110948;27;20060;-80
2022/10/19 00:58:58;;;;;;;12.50;4.47;;;;;;;;;;5113490;27;20552;-81
2022/10/19 01:01:25;;;;;;;13.07;4.70;;;;;;;;;;5099473;27;20077;-80
2022/10/19 01:03:52;;;;;;;8.20;3.80;;;;;;;;;;5094785;28;20052;-80
2022/10/19 01:06:18;;;;;;;16.77;4.93;;;;;;;;;;5103315;27;20043;-80
2022/10/19 01:08:45;;;;;;;10.93;4.50;;;;;;;;;;5100898;27;20053;-81
2022/10/19 01:11:22;;;;;;;10.40;5.07;;;;;;;;;;5103497;27;20143;-81
2022/10/19 01:13:48;;;;;;;10.18;4.10;;;;;;;;;;5098233;28;20530;-81
2022/10/19 01:16:19;;;;;;;8.60;4.57;;;;;;;;;;5108969;27;20133;-81
2022/10/19 01:18:53;;;;;;;9.77;4.30;;;;;;;;;;5126982;27;20067;-81
2022/10/19 01:21:21;;;;;;;8.43;4.47;;;;;;;;;;5112633;27;20040;-81
2022/10/19 01:24:06;;;;;;;8.60;4.28;;;;;;;;;;5105008;27;20057;-81
2022/10/19 01:26:40;;;;;;;8.27;4.50;;;;;;;;;;5118064;28;20041;-82
2022/10/19 01:29:25;;;;;;;7.32;3.65;;;;;;;;;;5100937;28;20056;-81
2022/10/19 01:32:01;;;;;;;8.27;4.35;;;;;;;;;;5102643;28;20051;-81
2022/10/19 01:34:41;;;;;;;8.93;4.20;;;;;;;;;;5111148;27;20048;-81
2022/10/19 01:37:26;;;;;;;6.25;3.70;;;;;;;;;;5103881;28;20049;-81
2022/10/19 01:40:01;;;;;;;7.30;3.80;;;;;;;;;;5111456;27;20048;-81
2022/10/19 01:42:43;;;;;;;7.57;4.00;;;;;;;;;;5120738;28;20051;-81
2022/10/19 01:45:15;;;;;;;10.90;4.22;;;;;;;;;;5118802;27;20052;-81
2022/10/19 01:47:45;;;;;;;7.28;3.95;;;;;;;;;;5110441;28;20515;-81
2022/10/19 01:50:14;;;;;;;9.13;3.85;;;;;;;;;;5113436;28;20604;-81
2022/10/19 01:52:41;;;;;;;6.78;3.45;;;;;;;;;;5094499;27;20045;-81
2022/10/19 01:55:09;;;;;;;6.20;3.03;;;;;;;;;;5120153;27;20059;-81
2022/10/19 01:57:38;;;;;;;6.53;3.17;;;;;;;;;;5107979;27;20056;-81
2022/10/19 02:00:08;;;;;;;6.60;3.00;;;;;;;;;;5112366;27;20053;-81
2022/10/19 02:02:36;;;;;;;6.82;2.90;;;;;;;;;;5103548;28;20057;-80
2022/10/19 02:05:03;;;;;;;5.75;2.78;;;;;;;;;;5110615;27;20055;-83
2022/10/19 02:07:30;;;;;;;5.68;2.90;;;;;;;;;;5102408;27;20838;-83
2022/10/19 02:09:56;;;;;;;5.10;2.92;;;;;;;;;;5115163;28;20064;-83
2022/10/19 02:12:23;;;;;;;5.75;2.95;;;;;;;;;;5118369;27;20063;-83
2022/10/19 02:14:52;;;;;;;6.47;3.33;;;;;;;;;;5100437;27;20506;-83
2022/10/19 02:17:21;;;;;;;9.65;3.50;;;;;;;;;;5112533;27;20048;-84
2022/10/19 02:19:47;;;;;;;6.82;3.40;;;;;;;;;;5117821;27;20134;-83
2022/10/19 02:22:13;;;;;;;6.82;3.20;;;;;;;;;;5116038;27;20044;-83
2022/10/19 02:24:40;;;;;;;9.07;3.58;;;;;;;;;;5101992;27;20053;-83
2022/10/19 02:27:06;;;;;;;6.82;3.38;;;;;;;;;;5107953;27;20052;-83
2022/10/19 02:29:33;;;;;;;6.03;3.25;;;;;;;;;;5108722;27;20059;-83
2022/10/19 02:32:00;;;;;;;6.03;3.40;;;;;;;;;;5117005;27;20052;-83
2022/10/19 02:34:27;;;;;;;6.97;3.40;;;;;;;;;;5106304;27;20056;-84
2022/10/19 02:36:53;;;;;;;6.43;3.28;;;;;;;;;;5109488;28;20052;-83
2022/10/19 02:39:20;;;;;;;7.72;3.50;;;;;;;;;;5117181;28;20048;-84
2022/10/19 02:41:59;;;;;;;10.38;3.42;;;;;;;;;;5102809;27;20064;-84
2022/10/19 02:44:29;;;;;;;10.63;3.08;;;;;;;;;;5111307;27;20064;-84
2022/10/19 02:47:05;;;;;;;9.73;3.58;;;;;;;;;;5111065;28;20052;-83
2022/10/19 02:49:33;;;;;;;6.53;3.38;;;;;;;;;;5109548;28;20105;-84
2022/10/19 02:52:00;;;;;;;6.18;3.50;;;;;;;;;;5115098;27;20052;-83
2022/10/19 02:54:26;;;;;;;6.18;3.20;;;;;;;;;;5101810;28;20045;-83
2022/10/19 02:56:53;;;;;;;6.22;3.22;;;;;;;;;;5105658;28;20056;-83
2022/10/19 02:59:19;;;;;;;6.68;3.13;;;;;;;;;;5098418;28;20427;-84
2022/10/19 03:01:45;;;;;;;7.45;3.20;;;;;;;;;;5101214;28;20051;-83
2022/10/19 03:04:12;;;;;;;7.50;3.50;;;;;;;;;;5109228;27;20117;-83
2022/10/19 03:06:38;;;;;;;10.48;3.58;;;;;;;;;;5109943;27;20151;-83
2022/10/19 03:09:04;;;;;;;8.32;3.70;;;;;;;;;;5094687;28;20057;-83
2022/10/19 03:11:31;;;;;;;7.55;3.95;;;;;;;;;;5102565;28;20061;-83
2022/10/19 03:13:57;;;;;;;7.43;3.45;;;;;;;;;;5104482;27;20053;-84
2022/10/19 03:16:23;;;;;;;6.88;3.35;;;;;;;;;;5113142;27;20553;-83
2022/10/19 03:18:50;;;;;;;5.88;3.05;;;;;;;;;;5097603;27;20055;-83
2022/10/19 03:21:17;;;;;;;8.93;3.40;;;;;;;;;;5100043;28;20079;-82
2022/10/19 03:23:43;;;;;;;7.15;2.85;;;;;;;;;;5115446;27;20063;-82
2022/10/19 03:26:12;;;;;;;6.22;3.13;;;;;;;;;;5108943;27;20048;-82
2022/10/19 03:28:38;;;;;;;5.88;3.05;;;;;;;;;;5109843;28;20070;-82
2022/10/19 03:31:05;;;;;;;4.70;2.55;;;;;;;;;;5118199;27;20122;-82
2022/10/19 03:33:31;;;;;;;6.43;2.80;;;;;;;;;;5106496;27;20122;-82
2022/10/19 03:36:14;;;;;;;6.35;2.97;;;;;;;;;;5105314;27;20056;-82
2022/10/19 03:38:41;;;;;;;5.22;2.70;;;;;;;;;;5105030;27;20056;-82
2022/10/19 03:41:07;;;;;;;9.20;3.13;;;;;;;;;;5103820;28;20511;-82
2022/10/19 03:43:34;;;;;;;8.20;3.45;;;;;;;;;;5108909;27;20368;-81
2022/10/19 03:46:00;;;;;;;6.85;3.63;;;;;;;;;;5117118;27;20036;-81
2022/10/19 03:48:27;;;;;;;7.97;3.67;;;;;;;;;;5117365;28;20044;-82
2022/10/19 03:51:04;;;;;;;10.32;3.45;;;;;;;;;;5105823;28;20053;-81
2022/10/19 03:53:30;;;;;;;16.63;4.32;;;;;;;;;;5116619;27;20051;-82
2022/10/19 03:56:09;;;;;;;7.47;3.60;;;;;;;;;;5109401;28;20056;-82
2022/10/19 03:58:37;;;;;;;8.90;3.72;;;;;;;;;;5104846;27;20083;-82
2022/10/19 04:01:17;;;;;;;12.25;4.28;;;;;;;;;;5103705;28;20048;-81
2022/10/19 04:03:43;;;;;;;9.68;3.85;;;;;;;;;;5122686;27;20105;-81
2022/10/19 04:06:11;;;;;;;9.05;4.25;;;;;;;;;;5110961;28;20052;-82
2022/10/19 04:08:41;;;;;;;7.13;4.05;;;;;;;;;;5112235;27;20129;-82
2022/10/19 04:11:09;;;;;;;6.78;3.88;;;;;;;;;;5106863;28;20055;-82
2022/10/19 04:13:36;;;;;;;7.38;3.85;;;;;;;;;;5121717;27;20035;-82
2022/10/19 04:16:02;;;;;;;7.35;3.67;;;;;;;;;;5106386;27;20495;-82
2022/10/19 04:18:28;;;;;;;7.22;3.78;;;;;;;;;;5107073;27;20056;-82
2022/10/19 04:20:55;;;;;;;6.82;3.58;;;;;;;;;;5109048;27;20048;-81
2022/10/19 04:23:22;;;;;;;6.88;3.50;;;;;;;;;;5102858;27;20049;-82
2022/10/19 04:25:48;;;;;;;5.85;3.67;;;;;;;;;;5107631;27;20052;-82
2022/10/19 04:28:14;;;;;;;6.75;3.20;;;;;;;;;;5111067;27;20099;-82
2022/10/19 04:30:41;;;;;;;6.57;3.50;;;;;;;;;;5094624;28;20106;-82
2022/10/19 04:33:07;;;;;;;8.18;3.70;;;;;;;;;;5109766;27;20051;-81
2022/10/19 04:35:33;;;;;;;8.25;3.70;;;;;;;;;;5107792;27;20052;-81
2022/10/19 04:37:59;;;;;;;8.30;3.67;;;;;;;;;;5109505;27;20059;-81
2022/10/19 04:40:26;;;;;;;7.63;3.88;;;;;;;;;;5116912;28;20047;-81
2022/10/19 04:42:52;;;;;;;8.05;3.88;;;;;;;;;;5107272;27;20043;-81
2022/10/19 04:45:18;;;;;;;6.05;3.85;;;;;;;;;;5103407;28;20125;-82
2022/10/19 04:47:44;;;;;;;5.57;3.72;;;;;;;;;;5111895;28;20545;-82
2022/10/19 04:50:11;;;;;;;6.28;3.60;;;;;;;;;;5107602;28;20061;-82
2022/10/19 04:52:38;;;;;;;10.10;4.43;;;;;;;;;;5114427;28;20048;-81
2022/10/19 04:55:04;;;;;;;6.10;3.30;;;;;;;;;;5108194;28;20906;-81
2022/10/19 04:57:30;;;;;;;7.90;4.00;;;;;;;;;;5117937;27;20074;-82
2022/10/19 04:59:57;;;;;;;8.23;4.57;;;;;;;;;;5108503;28;20461;-82
2022/10/19 05:02:23;;;;;;;10.70;4.43;;;;;;;;;;5116158;28;20154;-82
2022/10/19 05:04:50;;;;;;;7.97;3.63;;;;;;;;;;5114560;28;20067;-82
2022/10/19 05:07:16;;;;;;;6.82;4.00;;;;;;;;;;5110003;27;20142;-82
2022/10/19 05:09:42;;;;;;;9.10;4.13;;;;;;;;;;5106074;28;20049;-81
2022/10/19 05:12:08;;;;;;;6.95;3.67;;;;;;;;;;5110093;28;20048;-81
2022/10/19 05:14:35;;;;;;;7.15;3.65;;;;;;;;;;5108797;27;20052;-81
2022/10/19 05:17:07;;;;;;;6.10;3.95;;;;;;;;;;5105890;27;20045;-81
2022/10/19 05:19:33;;;;;;;6.88;3.92;;;;;;;;;;5111879;27;20053;-81
2022/10/19 05:21:59;;;;;;;7.68;4.00;;;;;;;;;;5115166;28;20044;-81
2022/10/19 05:24:25;;;;;;;8.68;3.63;;;;;;;;;;5108577;28;20052;-81
2022/10/19 05:26:52;;;;;;;6.80;3.47;;;;;;;;;;5109405;27;20052;-81
2022/10/19 05:29:18;;;;;;;7.50;4.28;;;;;;;;;;5117901;27;20051;-81
2022/10/19 05:31:45;;;;;;;10.90;4.50;;;;;;;;;;5111232;28;20037;-81
2022/10/19 05:34:11;;;;;;;8.05;3.83;;;;;;;;;;5112568;27;20036;-81
2022/10/19 05:36:38;;;;;;;6.80;3.28;;;;;;;;;;5120463;28;20044;-81
2022/10/19 05:39:12;;;;;;;8.75;3.90;;;;;;;;;;5126337;27;20055;-81
2022/10/19 05:41:38;;;;;;;7.35;3.65;;;;;;;;;;5126716;28;20048;-82
2022/10/19 05:44:05;;;;;;;6.32;3.45;;;;;;;;;;5116665;28;20056;-81
2022/10/19 05:46:31;;;;;;;5.82;3.28;;;;;;;;;;5119620;27;20122;-81
2022/10/19 05:48:58;;;;;;;6.25;3.33;;;;;;;;;;5120587;28;20055;-81
2022/10/19 05:51:25;;;;;;;8.02;3.33;;;;;;;;;;5119013;27;20051;-81
2022/10/19 05:53:52;;;;;;;6.55;3.45;;;;;;;;;;5124661;28;20044;-82
2022/10/19 05:56:20;;;;;;;6.55;3.08;;;;;;;;;;5110395;28;20515;-81
2022/10/19 05:58:47;;;;;;;8.20;3.60;;;;;;;;;;5123388;28;20052;-81
2022/10/19 06:01:14;;;;;;;6.57;3.30;;;;;;;;;;5116555;27;20048;-81
2022/10/19 06:03:41;;;;;;;6.45;3.47;;;;;;;;;;5115382;28;20060;-81
2022/10/19 06:06:08;;;;;;;7.95;4.10;;;;;;;;;;5105482;28;20865;-81
2022/10/19 06:08:34;;;;;;;8.80;4.10;;;;;;;;;;5107250;27;20040;-81
2022/10/19 06:11:08;;;;;;;7.28;4.10;;;;;;;;;;5113686;27;20075;-81
2022/10/19 06:13:35;;;;;;;7.60;3.50;;;;;;;;;;5107838;27;20051;-80
2022/10/19 06:16:01;;;;;;;7.68;3.38;;;;;;;;;;5106751;28;20061;-81
2022/10/19 06:18:28;;;;;;;7.47;3.80;;;;;;;;;;5103952;28;20040;-80
2022/10/19 06:20:54;;;;;;;6.57;3.40;;;;;;;;;;5120703;27;20051;-81
2022/10/19 06:23:21;;;;;;;6.20;4.00;;;;;;;;;;5108481;28;20048;-81
2022/10/19 06:25:47;;;;;;;9.05;3.75;;;;;;;;;;5114404;28;20035;-81
2022/10/19 06:28:13;;;;;;;6.05;3.50;;;;;;;;;;5106445;27;20040;-81
2022/10/19 06:30:40;;;;;;;6.38;3.35;;;;;;;;;;5121531;28;20567;-81
2022/10/19 06:33:06;;;;;;;7.63;3.58;;;;;;;;;;5116307;27;20055;-81
2022/10/19 06:35:32;;;;;;;7.47;3.90;;;;;;;;;;5110948;28;20511;-81
2022/10/19 06:37:59;;;;;;;9.80;3.60;;;;;;;;;;5114618;28;20535;-81
2022/10/19 06:40:25;;;;;;;7.50;3.70;;;;;;;;;;5111552;28;20052;-81
2022/10/19 06:42:53;;;;;;;5.97;3.88;;;;;;;;;;5107632;28;20056;-81
2022/10/19 06:45:19;;;;;;;7.43;3.83;;;;;;;;;;5108572;27;20040;-80
2022/10/19 06:47:45;;;;;;;7.90;3.88;;;;;;;;;;5108392;27;20056;-81
2022/10/19 06:50:13;;;;;;;10.52;4.30;;;;;;;;;;5104096;27;20056;-80
2022/10/19 06:52:39;;;;;;;8.30;3.95;;;;;;;;;;5108015;27;21106;-80
2022/10/19 06:55:06;;;;;;;10.25;4.32;;;;;;;;;;5112167;27;20056;-80
2022/10/19 06:57:32;;;;;;;8.13;4.18;;;;;;;;;;5111517;28;20056;-80
2022/10/19 06:59:59;;;;;;;7.00;4.03;;;;;;;;;;5104967;28;20108;-80
2022/10/19 07:02:25;;;;;;;10.45;4.47;;;;;;;;;;5113816;27;20059;-81
2022/10/19 07:04:51;;;;;;;8.43;4.40;;;;;;;;;;5111933;28;20056;-80
2022/10/19 07:07:17;;;;;;;18.15;5.32;;;;;;;;;;5104739;28;20063;-81
2022/10/19 07:09:44;;;;;;;8.82;4.60;;;;;;;;;;5103482;28;20669;-81
2022/10/19 07:12:10;;;;;;;10.13;4.85;;;;;;;;;;5114587;28;20056;-80
2022/10/19 07:14:38;;;;;;;12.40;6.18;;;;;;;;;;5114118;28;20055;-80
2022/10/19 07:17:05;;;;;;;17.75;6.05;;;;;;;;;;5116140;27;20106;-80
2022/10/19 07:19:32;;;;;;;10.93;5.10;;;;;;;;;;5104311;28;20060;-80
2022/10/19 07:21:58;;;;;;;8.18;4.40;;;;;;;;;;5105951;27;20820;-81
2022/10/19 07:24:24;;;;;;;8.68;4.22;;;;;;;;;;5106232;28;20036;-81
2022/10/19 07:26:51;;;;;;;7.70;4.72;;;;;;;;;;5109492;27;20055;-82
2022/10/19 07:29:17;;;;;;;9.45;4.28;;;;;;;;;;5107762;27;20106;-81
2022/10/19 07:31:43;;;;;;;10.32;4.40;;;;;;;;;;5109350;28;20449;-82
2022/10/19 07:34:10;;;;;;;9.52;3.78;;;;;;;;;;5115075;28;20048;-81
2022/10/19 07:36:36;;;;;;;6.80;3.58;;;;;;;;;;5104195;28;20040;-82
2022/10/19 07:39:05;;;;;;;7.60;3.63;;;;;;;;;;5101488;28;20052;-82
2022/10/19 07:41:32;;;;;;;8.55;3.72;;;;;;;;;;5105412;28;20056;-82
2022/10/19 07:43:58;;;;;;;8.30;3.88;;;;;;;;;;5114067;28;20056;-82
2022/10/19 07:46:27;;;;;;;8.85;4.47;;;;;;;;;;5109233;27;20048;-82
2022/10/19 07:48:54;;;;;;;9.05;4.22;;;;;;;;;;5108457;27;20052;-81
2022/10/19 07:51:20;;;;;;;9.27;4.40;;;;;;;;;;5106581;27;20033;-81
2022/10/19 07:53:47;;;;;;;12.73;4.57;;;;;;;;;;5112185;27;20060;-81
2022/10/19 07:56:17;;;;;;;8.52;4.30;;;;;;;;;;5110363;27;20060;-81
2022/10/19 07:58:44;;;;;;;12.45;4.70;;;;;;;;;;5102671;27;20053;-81
2022/10/19 08:01:18;;;;;;;10.15;3.90;;;;;;;;;;5113206;27;20106;-81
2022/10/19 08:03:45;;;;;;;10.25;4.50;;;;;;;;;;5108108;28;20122;-81
2022/10/19 08:06:31;;;;;;;9.02;5.05;;;;;;;;;;5114841;27;20635;-82
2022/10/19 08:08:57;;;;;;;8.48;4.72;;;;;;;;;;5112385;27;20815;-81
2022/10/19 08:11:25;;;;;;;11.68;4.80;;;;;;;;;;5107911;27;20127;-82
2022/10/19 08:13:52;;;;;;;11.10;4.63;;;;;;;;;;5113735;27;20113;-82
2022/10/19 08:16:24;;;;;;;11.30;4.97;;;;;;;;;;5112038;27;20066;-82
2022/10/19 08:18:51;;;;;;;9.30;4.57;;;;;;;;;;5113763;28;20044;-83
2022/10/19 08:21:18;;;;;;;9.57;4.63;;;;;;;;;;5110856;27;20064;-82
2022/10/19 08:23:44;;;;;;;9.32;5.40;;;;;;;;;;5105117;27;20144;-81
2022/10/19 08:26:10;;;;;;;10.50;5.43;;;;;;;;;;5109485;27;20491;-81
2022/10/19 08:28:37;;;;;;;18.38;6.72;;;;;;;;;;5106236;27;20049;-84
2022/10/19 08:31:14;;;;;;;14.75;6.20;;;;;;;;;;5088219;28;20037;-84
2022/10/19 08:33:40;;;;;;;14.75;7.57;;;;;;;;;;5103440;28;20060;-84
2022/10/19 08:36:07;;;;;;;13.80;6.18;;;;;;;;;;5106813;27;20053;-85
2022/10/19 08:38:34;;;;;;;19.42;7.72;;;;;;;;;;5099808;28;20049;-85
2022/10/19 08:41:13;;;;;;;16.35;7.03;;;;;;;;;;5103530;28;20121;-84
2022/10/19 08:43:45;;;;;;;16.52;7.45;;;;;;;;;;5107593;28;20064;-84
2022/10/19 08:46:12;;;;;;;16.27;6.05;;;;;;;;;;5100192;28;20052;-85
2022/10/19 08:48:41;;;;;;;19.90;6.93;;;;;;;;;;5108107;27;20052;-85
2022/10/19 08:51:10;;;;;;;14.02;6.47;;;;;;;;;;5108280;28;20049;-84
2022/10/19 08:53:44;;;;;;;18.17;6.45;;;;;;;;;;5106330;28;20048;-84
2022/10/19 08:56:20;;;;;;;15.48;6.13;;;;;;;;;;5093451;28;20052;-84
2022/10/19 08:59:29;;;;;;;16.73;5.78;;;;;;;;;;5100150;28;20052;-84
2022/10/19 09:02:03;;;;;;;15.80;5.85;;;;;;;;;;5092575;28;20059;-84
2022/10/19 09:04:29;;;;;;;10.65;5.10;;;;;;;;;;5108698;28;20056;-83
2022/10/19 09:07:14;;;;;;;10.18;4.65;;;;;;;;;;5105820;27;20040;-84
2022/10/19 09:09:42;;;;;;;10.13;4.57;;;;;;;;;;5099438;27;20197;-83
2022/10/19 09:12:11;;;;;;;10.55;4.68;;;;;;;;;;5107853;28;20055;-84
2022/10/19 09:14:43;;;;;;;12.98;4.72;;;;;;;;;;5105524;28;20540;-85
2022/10/19 09:17:12;;;;;;;9.10;3.97;;;;;;;;;;5109660;27;20052;-85
2022/10/19 09:19:38;;;;;;;9.30;4.28;;;;;;;;;;5108303;27;20545;-84
2022/10/19 09:22:06;;;;;;;10.55;3.35;;;;;;;;;;5109805;27;20056;-84
2022/10/19 09:24:41;;;;;;;10.82;3.90;;;;;;;;;;5107113;27;20056;-84
2022/10/19 09:27:14;;;;;;;12.68;3.92;;;;;;;;;;5112992;27;20056;-86
2022/10/19 09:29:43;;;;;;;11.85;3.72;;;;;;;;;;5102431;28;20055;-84
2022/10/19 09:32:12;;;;;;;9.18;3.70;;;;;;;;;;5106808;27;20519;-84
2022/10/19 09:34:43;;;;;;;9.23;3.70;;;;;;;;;;5111086;28;20055;-85
2022/10/19 09:37:10;;;;;;;6.32;3.38;;;;;;;;;;5097720;27;20501;-85
2022/10/19 09:39:47;;;;;;;10.60;3.22;;;;;;;;;;5093881;27;20109;-84
2022/10/19 09:42:23;;;;;;;11.45;3.35;;;;;;;;;;5106613;28;20056;-83
2022/10/19 09:44:50;;;;;;;7.15;2.25;;;;;;;;;;5110814;28;20079;-84
2022/10/19 09:47:16;;;;;;;12.52;2.53;;;;;;;;;;5111228;28;20861;-84
2022/10/19 09:49:44;;;;;;;8.45;2.55;;;;;;;;;;5111098;27;20063;-84
2022/10/19 09:52:29;;;;;;;5.28;2.17;;;;;;;;;;5094179;28;20052;-83
2022/10/19 09:55:00;;;;;;;6.40;2.33;;;;;;;;;;5106376;28;20059;-84
2022/10/19 09:57:27;;;;;;;8.38;1.92;;;;;;;;;;5101809;28;20090;-83
2022/10/19 09:59:53;;;;;;;5.05;1.70;;;;;;;;;;5104952;28;20145;-84
2022/10/19 10:02:21;;;;;;;8.13;1.92;;;;;;;;;;5112923;27;20571;-83
2022/10/19 10:04:54;;;;;;;8.77;1.92;;;;;;;;;;5101834;27;22318;-83
2022/10/19 10:07:24;;;;;;;9.02;1.38;;;;;;;;;;5113073;27;20043;-83
2022/10/19 10:09:51;;;;;;;6.05;1.52;;;;;;;;;;5111251;27;20082;-83
2022/10/19 10:12:17;;;;;;;6.82;1.60;;;;;;;;;;5128724;27;20525;-83
2022/10/19 10:14:44;;;;;;;3.55;1.25;;;;;;;;;;5112654;27;20052;-83
2022/10/19 10:17:15;;;;;;;5.57;1.42;;;;;;;;;;5111627;28;20074;-83
2022/10/19 10:20:08;;;;;;;7.53;1.30;;;;;;;;;;5111152;27;20048;-83
2022/10/19 10:22:35;;;;;;;6.78;1.40;;;;;;;;;;5099433;27;20064;-84
2022/10/19 10:25:10;;;;;;;4.10;0.90;;;;;;;;;;5106678;27;20142;-82
2022/10/19 10:27:37;;;;;;;4.05;0.98;;;;;;;;;;5100768;27;20052;-83
2022/10/19 10:30:05;;;;;;;5.18;0.90;;;;;;;;;;5102390;27;20044;-83
2022/10/19 10:32:35;;;;;;;7.82;1.02;;;;;;;;;;5106157;27;20059;-84
2022/10/19 10:35:04;;;;;;;3.80;0.90;;;;;;;;;;5098597;27;20182;-83
2022/10/19 10:37:36;;;;;;;3.88;1.10;;;;;;;;;;5112483;27;20056;-83
2022/10/19 10:40:06;;;;;;;7.28;1.45;;;;;;;;;;5101167;28;20110;-83
2022/10/19 10:42:40;;;;;;;4.47;1.30;;;;;;;;;;5110181;27;20063;-83
2022/10/19 10:45:27;;;;;;;5.90;1.15;;;;;;;;;;5110353;27;20809;-83
2022/10/19 10:47:53;;;;;;;5.63;1.10;;;;;;;;;;5110553;27;20048;-83
2022/10/19 10:50:24;;;;;;;4.95;1.20;;;;;;;;;;5110487;28;20056;-83
2022/10/19 10:52:58;;;;;;;8.52;1.20;;;;;;;;;;5112065;28;20495;-83
2022/10/19 10:55:25;;;;;;;5.32;1.17;;;;;;;;;;5111832;28;20807;-83
2022/10/19 10:57:57;;;;;;;5.82;1.33;;;;;;;;;;5105177;27;20056;-83
2022/10/19 11:00:23;;;;;;;7.47;1.25;;;;;;;;;;5110519;27;20056;-81
2022/10/19 11:02:50;;;;;;;8.77;1.13;;;;;;;;;;5111882;28;20052;-82
2022/10/19 11:05:27;;;;;;;6.45;1.33;;;;;;;;;;5113012;27;20075;-81
2022/10/19 11:08:13;;;;;;;4.75;1.08;;;;;;;;;;5127727;27;20048;-82
2022/10/19 11:10:45;;;;;;;6.90;1.60;;;;;;;;;;5096958;27;20055;-82
2022/10/19 11:13:15;;;;;;;8.25;2.05;;;;;;;;;;5101136;27;20057;-81
2022/10/19 11:16:01;;;;;;;8.20;1.27;;;;;;;;;;5091426;28;20507;-81
2022/10/19 11:18:34;;;;;;;5.82;1.15;;;;;;;;;;5090816;28;20059;-81
2022/10/19 11:21:04;;;;;;;7.25;1.30;;;;;;;;;;5106003;27;20047;-82
2022/10/19 11:23:49;;;;;;;7.97;1.30;;;;;;;;;;5128831;27;20059;-81
2022/10/19 11:26:34;;;;;;;5.55;1.40;;;;;;;;;;5106413;28;20048;-82
2022/10/19 11:29:19;;;;;;;6.38;1.23;;;;;;;;;;5104543;27;20052;-81
2022/10/19 11:31:47;;;;;;;9.43;1.40;;;;;;;;;;5099760;27;20057;-81
2022/10/19 11:34:33;;;;;;;4.15;1.08;;;;;;;;;;5098453;28;20063;-80
2022/10/19 11:37:02;;;;;;;5.53;1.30;;;;;;;;;;5105943;27;20523;-81
2022/10/19 11:39:47;;;;;;;11.68;1.13;;;;;;;;;;5106384;27;20056;-81
2022/10/19 11:42:13;;;;;;;6.15;1.30;;;;;;;;;;5110034;27;20052;-82
2022/10/19 11:44:39;;;;;;;6.13;1.45;;;;;;;;;;5105833;27;20594;-81
2022/10/19 11:47:08;;;;;;;6.65;1.30;;;;;;;;;;5109790;27;20064;-81
2022/10/19 11:49:38;;;;;;;3.97;1.15;;;;;;;;;;5099867;27;20048;-81
2022/10/19 11:52:25;;;;;;;4.95;1.00;;;;;;;;;;5102503;27;20055;-81
2022/10/19 11:55:04;;;;;;;5.70;1.48;;;;;;;;;;5097426;27;20052;-80
2022/10/19 11:57:33;;;;;;;6.13;1.50;;;;;;;;;;5114412;27;20113;-81
2022/10/19 12:00:03;;;;;;;5.43;1.40;;;;;;;;;;5108123;27;20056;-81
2022/10/19 12:02:40;;;;;;;3.22;1.23;;;;;;;;;;5095446;27;20116;-81
2022/10/19 12:05:12;;;;;;;4.97;1.40;;;;;;;;;;5097102;28;20561;-81
2022/10/19 12:07:58;;;;;;;5.60;1.50;;;;;;;;;;5100544;27;20056;-81
2022/10/19 12:10:37;;;;;;;9.95;1.70;;;;;;;;;;5100283;28;20048;-81
2022/10/19 12:13:04;;;;;;;6.95;1.73;;;;;;;;;;5124768;27;20056;-81
2022/10/19 12:15:34;;;;;;;4.72;1.40;;;;;;;;;;5099703;27;20051;-81
2022/10/19 12:18:05;;;;;;;4.43;1.25;;;;;;;;;;5116711;27;20035;-81
2022/10/19 12:20:51;;;;;;;6.00;1.35;;;;;;;;;;5092879;27;20074;-81
2022/10/19 12:23:37;;;;;;;6.63;1.35;;;;;;;;;;5098535;27;20106;-81
2022/10/19 12:26:10;;;;;;;8.35;1.40;;;;;;;;;;5108863;28;20936;-80
2022/10/19 12:28:40;;;;;;;5.70;1.42;;;;;;;;;;5110527;27;20063;-81
2022/10/19 12:31:08;;;;;;;5.22;1.27;;;;;;;;;;5106175;27;20036;-81
2022/10/19 12:33:45;;;;;;;6.50;1.30;;;;;;;;;;5107014;27;20048;-81
2022/10/19 12:36:17;;;;;;;5.78;1.50;;;;;;;;;;5095472;27;20056;-80
2022/10/19 12:38:56;;;;;;;6.10;2.20;;;;;;;;;;5105021;28;20161;-81
2022/10/19 12:41:29;;;;;;;5.40;1.30;;;;;;;;;;5106114;27;20148;-81
2022/10/19 12:44:01;;;;;;;4.55;1.15;;;;;;;;;;5117652;27;20078;-80
2022/10/19 12:46:27;;;;;;;7.00;1.60;;;;;;;;;;5096544;27;20056;-81
2022/10/19 12:49:16;;;;;;;5.30;1.30;;;;;;;;;;5109248;27;20052;-81
2022/10/19 12:51:52;;;;;;;6.97;1.63;;;;;;;;;;5107121;28;20062;-81
2022/10/19 12:54:23;;;;;;;4.72;1.30;;;;;;;;;;5101607;27;20052;-80
2022/10/19 12:56:50;;;;;;;5.22;1.42;;;;;;;;;;5104997;28;20053;-81
2022/10/19 12:59:29;;;;;;;3.65;1.20;;;;;;;;;;5099451;27;20060;-81
2022/10/19 13:01:57;;;;;;;8.25;1.73;;;;;;;;;;5112826;27;20056;-81
2022/10/19 13:04:28;;;;;;;4.90;1.67;;;;;;;;;;5113077;27;20168;-80
2022/10/19 13:06:55;;;;;;;8.68;1.83;;;;;;;;;;5113956;27;20105;-81
2022/10/19 13:09:41;;;;;;;5.47;1.60;;;;;;;;;;5104634;27;20063;-81
2022/10/19 13:12:13;;;;;;;7.07;1.80;;;;;;;;;;5107803;27;20069;-81
2022/10/19 13:14:50;;;;;;;4.93;2.15;;;;;;;;;;5103048;28;21000;-80
2022/10/19 13:17:32;;;;;;;7.05;2.20;;;;;;;;;;5106417;27;20531;-80
2022/10/19 13:20:11;;;;;;;5.43;1.60;;;;;;;;;;5104171;28;20048;-80
2022/10/19 13:22:38;;;;;;;5.50;1.50;;;;;;;;;;5122481;27;20048;-80
2022/10/19 13:25:17;;;;;;;7.55;1.52;;;;;;;;;;5106258;27;20053;-80
2022/10/19 13:27:44;;;;;;;11.90;1.70;;;;;;;;;;5107207;27;20048;-81
2022/10/19 13:30:30;;;;;;;6.90;1.55;;;;;;;;;;5102182;27;20063;-80
2022/10/19 13:32:56;;;;;;;5.10;1.60;;;;;;;;;;5117840;27;20143;-81
2022/10/19 13:35:22;;;;;;;5.97;1.30;;;;;;;;;;5103635;28;20074;-80
2022/10/19 13:38:07;;;;;;;7.65;1.40;;;;;;;;;;5122231;27;20071;-80
2022/10/19 13:40:40;;;;;;;6.82;1.30;;;;;;;;;;5114981;28;20147;-80
2022/10/19 13:43:16;;;;;;;7.38;1.40;;;;;;;;;;5115179;28;20039;-80
2022/10/19 13:45:42;;;;;;;6.68;1.60;;;;;;;;;;5101989;28;20059;-80
2022/10/19 13:48:15;;;;;;;5.55;1.10;;;;;;;;;;5115712;28;20074;-80
2022/10/19 13:50:45;;;;;;;6.72;1.48;;;;;;;;;;5109392;27;20060;-80
2022/10/19 13:53:18;;;;;;;6.18;1.10;;;;;;;;;;5118619;27;20052;-79
2022/10/19 13:55:49;;;;;;;9.30;1.50;;;;;;;;;;5116306;27;20060;-80
2022/10/19 13:58:31;;;;;;;6.05;1.23;;;;;;;;;;5109728;28;20056;-79
2022/10/19 14:01:24;;;;;;;7.40;1.50;;;;;;;;;;5112526;27;20041;-80
2022/10/19 14:03:57;;;;;;;5.15;1.17;;;;;;;;;;5101277;28;20101;-80
2022/10/19 14:06:25;;;;;;;4.47;1.00;;;;;;;;;;5122207;27;20044;-81
2022/10/19 14:09:13;;;;;;;4.22;1.05;;;;;;;;;;5113973;27;20045;-80
2022/10/19 14:11:41;;;;;;;5.63;1.20;;;;;;;;;;5112615;27;20082;-80
2022/10/19 14:14:08;;;;;;;4.03;1.00;;;;;;;;;;5105645;27;20511;-80
2022/10/19 14:16:43;;;;;;;8.07;1.30;;;;;;;;;;5115698;28;20499;-80
2022/10/19 14:19:12;;;;;;;4.22;1.17;;;;;;;;;;5111607;27;20040;-80
2022/10/19 14:21:38;;;;;;;5.65;1.17;;;;;;;;;;5115393;27;20068;-80
2022/10/19 14:24:26;;;;;;;8.02;1.20;;;;;;;;;;5103916;28;20057;-80
2022/10/19 14:26:53;;;;;;;6.57;1.10;;;;;;;;;;5107753;28;20056;-80
2022/10/19 14:29:19;;;;;;;5.43;1.08;;;;;;;;;;5116977;27;20043;-80
2022/10/19 14:31:45;;;;;;;6.80;1.00;;;;;;;;;;5109005;28;20140;-80
2022/10/19 14:34:12;;;;;;;5.05;1.85;;;;;;;;;;5105553;28;20056;-80
2022/10/19 14:36:43;;;;;;;5.22;1.05;;;;;;;;;;5111251;27;20055;-80
2022/10/19 14:39:21;;;;;;;4.63;1.02;;;;;;;;;;5119774;27;20061;-80
2022/10/19 14:41:51;;;;;;;5.28;1.25;;;;;;;;;;5111097;28;20067;-80
2022/10/19 14:44:18;;;;;;;;;;;;;;;;;;5114337;28;20062;-80
2022/10/19 14:46:46;;;;;;;5.47;1.17;;;;;;;;;;5098290;28;46175;-80
2022/10/19 14:49:12;;;;;;;8.02;1.17;;;;;;;;;;5116779;27;20052;-81
2022/10/19 14:51:45;;;;;;;5.28;1.30;;;;;;;;;;5105611;27;20064;-80
2022/10/19 14:54:30;;;;;;;5.18;0.90;;;;;;;;;;5098095;27;20086;-80
2022/10/19 14:56:56;;;;;;;7.53;1.30;;;;;;;;;;5106655;27;20055;-80